Hovedside
METAR-TAF:

METAR-TAF

Lufthavner :

Mafikeng, Sør-Afrika

breddegrad: 25-47S, lengdegrad: 025-32E, høyde over havet: 1281 m

Gjeldene værobservasjon

Denne rapporten ble laget for 29 minutter siden, klokken 02:00 UTC
Vind 7 kt fra Sør-sørøst
Temperatur 3°C
Luftfuktighet 56%
Trykk 1025 hPa

METAR: FAMM 150200Z AUTO 15007KT //// // ////// 03/M05 Q1025

Tid: 04:29 (02:29 UTC)

Varsel

Denne rapporten ble laget for 17 timer og 29 minutter siden, klokken 09:00 UTC
Varsel gyldig fra 14. klokken 10 UTC til 14. klokken 18 UTC
Vind 8 kt fra Sør-sørvest
Sikt 10 km eller mer
ingen skyer under 1500 m og ingen bygeskyer
Blir
fra 14. klokken 16 UTC til 14. klokken 18 UTC
Vind 3 kt fra skiftende retning

TAF: FAMM 140900Z 1410/1418 20008KT CAVOK TX22/1413Z TN12/1418Z BECMG 1416/1418 VRB03KT

Værobservasjoner og værvarsel for over 4000 flyplasser (METAR- og TAF-rapporter).

Tilgjengelige stasjoner er representert av de røde og gule prikkene på kartet.

Hold musepekeren over prikken for å se navnet på stasjonen.

Klikk så for å se værobservasjoner og -varsler.

For å forandre kartet kan du klikke på den grønne knappen med svart kryss for å zoome inn, på den grønne knappen med strek for å zoome ut, eller på de grønne pilene for å se tilstøtende kart.


METAR-TAF: